Time;durP1;ratioP1;P1;durP2;ratioP2;P2;SDS_P1;SDS_P2;PMS_P1;PMS_P2;Temp;Humidity;BMP_temperature;BMP_pressure;BME280_temperature;BME280_humidity;BME280_pressure;Samples;Min_cycle;Max_cycle;Signal;HPM_P1;HPM_P2
2023/06/14 00:01:20;;;;;;;4.13;1.98;;;14.30;1.00;;;;;;4988363;28;20652;-75
2023/06/14 00:03:47;;;;;;;2.47;2.22;;;14.40;1.00;;;;;;4988646;28;20310;-74
2023/06/14 00:06:13;;;;;;;2.72;1.55;;;14.30;1.00;;;;;;4988552;28;20189;-74
2023/06/14 00:08:39;;;;;;;1.88;1.60;;;14.20;1.00;;;;;;4987789;28;20203;-75
2023/06/14 00:11:05;;;;;;;1.88;1.60;;;14.20;1.00;;;;;;4988181;28;20180;-74
2023/06/14 00:13:31;;;;;;;1.48;1.38;;;14.30;1.00;;;;;;4988522;28;20239;-73
2023/06/14 00:15:57;;;;;;;2.50;1.70;;;14.30;1.00;;;;;;4986944;28;20212;-74
2023/06/14 00:18:29;;;;;;;1.60;1.50;;;14.30;1.00;;;;;;4987659;28;20204;-74
2023/06/14 00:20:55;;;;;;;1.75;1.63;;;14.30;1.00;;;;;;4988669;28;20726;-76
2023/06/14 00:23:21;;;;;;;2.00;1.48;;;14.30;1.00;;;;;;4988273;28;20267;-73
2023/06/14 00:25:47;;;;;;;1.80;1.70;;;14.20;1.00;;;;;;4988010;28;20208;-74
2023/06/14 00:28:13;;;;;;;1.92;1.75;;;14.50;1.00;;;;;;4987460;28;20207;-73
2023/06/14 00:30:39;;;;;;;4.13;1.65;;;14.40;1.00;;;;;;4988313;28;20627;-74
2023/06/14 00:33:04;;;;;;;3.75;1.63;;;14.40;1.00;;;;;;4988108;28;20215;-73
2023/06/14 00:35:30;;;;;;;4.30;1.80;;;14.40;1.00;;;;;;4987719;28;20200;-74
2023/06/14 00:37:55;;;;;;;4.07;1.83;;;14.30;1.00;;;;;;4987295;28;20200;-73
2023/06/14 00:40:21;;;;;;;1.92;1.73;;;14.40;1.00;;;;;;4987791;28;20199;-74
2023/06/14 00:42:47;;;;;;;2.17;1.70;;;14.40;1.00;;;;;;4986573;28;20188;-74
2023/06/14 00:45:13;;;;;;;2.10;1.80;;;14.30;1.00;;;;;;4986976;28;20622;-74
2023/06/14 00:47:42;;;;;;;3.70;1.60;;;14.20;1.00;;;;;;4986757;28;20283;-74
2023/06/14 00:50:09;;;;;;;1.98;1.70;;;14.20;1.00;;;;;;4986747;28;20187;-75
2023/06/14 00:52:36;;;;;;;2.45;1.60;;;14.20;1.00;;;;;;4987015;28;20268;-74
2023/06/14 00:55:02;;;;;;;1.60;1.50;;;14.30;1.00;;;;;;4987379;28;20180;-75
2023/06/14 00:57:29;;;;;;;2.72;1.77;;;14.20;1.00;;;;;;4986833;28;20214;-73
2023/06/14 00:59:55;;;;;;;1.65;1.45;;;14.20;1.00;;;;;;4987876;28;20184;-75
2023/06/14 01:02:21;;;;;;;1.70;1.40;;;14.20;1.00;;;;;;4987081;28;20569;-73
2023/06/14 01:04:48;;;;;;;2.42;1.35;;;14.10;1.00;;;;;;4985319;28;20184;-74
2023/06/14 01:07:47;;;;;;;2.30;1.70;;;14.10;1.00;;;;;;4986349;28;20228;-74
2023/06/14 01:10:35;;;;;;;2.67;1.52;;;14.00;1.00;;;;;;4986734;28;20180;-73
2023/06/14 01:13:21;;;;;;;1.45;1.35;;;13.80;1.00;;;;;;4985173;28;20230;-75
2023/06/14 01:15:47;;;;;;;1.60;1.50;;;13.90;1.00;;;;;;4986851;28;20641;-73
2023/06/14 01:18:19;;;;;;;3.33;1.85;;;14.00;1.00;;;;;;4986577;28;20227;-75
2023/06/14 01:20:49;;;;;;;1.88;1.58;;;14.00;1.00;;;;;;4987170;28;20934;-75
2023/06/14 01:23:19;;;;;;;2.03;1.50;;;14.10;1.00;;;;;;4987118;28;20211;-75
2023/06/14 01:25:45;;;;;;;2.33;1.60;;;14.00;1.00;;;;;;4987144;28;20192;-75
2023/06/14 01:28:12;;;;;;;2.92;1.80;;;14.00;1.00;;;;;;4986210;28;20203;-74
2023/06/14 01:30:42;;;;;;;4.07;1.55;;;14.10;1.00;;;;;;4986900;28;20223;-73
2023/06/14 01:33:08;;;;;;;1.98;1.63;;;14.10;1.00;;;;;;4986692;28;20195;-74
2023/06/14 01:35:34;;;;;;;1.60;1.50;;;14.20;1.00;;;;;;4986883;28;20208;-73
2023/06/14 01:38:00;;;;;;;1.48;1.38;;;14.10;1.00;;;;;;4986150;28;20207;-74
2023/06/14 01:40:26;;;;;;;1.85;1.73;;;14.20;1.00;;;;;;4986787;28;20299;-73
2023/06/14 01:42:52;;;;;;;3.92;1.75;;;14.00;1.00;;;;;;4987131;28;20184;-74
2023/06/14 01:45:19;;;;;;;2.00;1.52;;;14.00;1.00;;;;;;4986412;28;20528;-75
2023/06/14 01:47:45;;;;;;;1.40;1.30;;;14.00;1.00;;;;;;4986173;28;20235;-73
2023/06/14 01:50:12;;;;;;;2.85;1.70;;;14.10;1.00;;;;;;4986527;28;20219;-75
2023/06/14 01:52:38;;;;;;;2.05;1.83;;;14.00;1.00;;;;;;4986310;28;20219;-75
2023/06/14 01:55:05;;;;;;;3.22;1.60;;;14.00;1.00;;;;;;4986651;28;20215;-74
2023/06/14 01:57:31;;;;;;;2.05;1.60;;;13.80;1.00;;;;;;4985490;28;20254;-74
2023/06/14 01:59:56;;;;;;;1.92;1.70;;;13.60;1.00;;;;;;4986725;28;20202;-72
2023/06/14 02:02:22;;;;;;;2.20;1.60;;;13.40;1.00;;;;;;4984832;28;20232;-74
2023/06/14 02:04:48;;;;;;;1.95;1.85;;;13.40;1.00;;;;;;4986509;28;20647;-73
2023/06/14 02:07:14;;;;;;;2.08;1.80;;;13.40;1.00;;;;;;4985263;28;20207;-75
2023/06/14 02:09:41;;;;;;;2.75;1.52;;;13.20;1.00;;;;;;4986347;28;20224;-74
2023/06/14 02:12:07;;;;;;;1.80;1.70;;;13.10;1.00;;;;;;4986142;28;20188;-74
2023/06/14 02:14:33;;;;;;;7.25;2.28;;;13.00;1.00;;;;;;4986134;28;20235;-74
2023/06/14 02:17:00;;;;;;;3.25;1.70;;;12.90;1.00;;;;;;4985707;28;20203;-75
2023/06/14 02:19:26;;;;;;;1.58;1.48;;;12.90;1.00;;;;;;4986201;28;20191;-73
2023/06/14 02:21:52;;;;;;;1.77;1.35;;;12.90;1.00;;;;;;4986218;28;20200;-74
2023/06/14 02:24:18;;;;;;;3.25;1.80;;;12.90;1.00;;;;;;4986067;28;20191;-73
2023/06/14 02:26:43;;;;;;;1.90;1.80;;;13.10;1.00;;;;;;4985583;28;20200;-74
2023/06/14 02:29:12;;;;;;;2.00;1.50;;;13.00;1.00;;;;;;4985100;28;20259;-74
2023/06/14 02:31:38;;;;;;;4.03;1.80;;;13.00;1.00;;;;;;4986155;28;20176;-74
2023/06/14 02:34:04;;;;;;;4.05;1.70;;;13.10;1.00;;;;;;4985854;28;20185;-74
2023/06/14 02:36:30;;;;;;;2.42;1.80;;;13.10;1.00;;;;;;4986137;28;20204;-74
2023/06/14 02:38:59;;;;;;;2.10;1.60;;;13.00;1.00;;;;;;4985031;28;20606;-74
2023/06/14 02:41:26;;;;;;;2.10;1.90;;;12.90;1.00;;;;;;4985846;28;20187;-75
2023/06/14 02:43:52;;;;;;;2.03;1.73;;;12.80;1.00;;;;;;4986029;28;20187;-74
2023/06/14 02:46:17;;;;;;;2.85;1.52;;;12.70;1.00;;;;;;4985978;28;20268;-73
2023/06/14 02:48:43;;;;;;;2.00;1.80;;;12.70;1.00;;;;;;4985170;28;20278;-74
2023/06/14 02:51:09;;;;;;;3.10;1.50;;;12.70;1.00;;;;;;4986064;28;20601;-75
2023/06/14 02:53:36;;;;;;;2.88;1.77;;;12.80;1.00;;;;;;4985315;28;20184;-75
2023/06/14 02:56:03;;;;;;;2.20;2.00;;;12.80;1.00;;;;;;4985618;28;20636;-74
2023/06/14 02:58:29;;;;;;;1.88;1.77;;;12.80;1.00;;;;;;4985403;28;20192;-74
2023/06/14 03:00:55;;;;;;;1.40;1.30;;;12.70;1.00;;;;;;4985759;28;20258;-75
2023/06/14 03:03:21;;;;;;;2.03;1.73;;;12.70;1.00;;;;;;4983977;28;20188;-75
2023/06/14 03:05:49;;;;;;;1.95;1.83;;;12.70;1.00;;;;;;4985133;28;20295;-74
2023/06/14 03:08:16;;;;;;;2.60;1.85;;;12.70;1.00;;;;;;4984354;28;20255;-76
2023/06/14 03:10:49;;;;;;;1.70;1.60;;;12.70;1.00;;;;;;4985603;28;20188;-73
2023/06/14 03:13:20;;;;;;;5.93;1.75;;;12.90;1.00;;;;;;4984978;28;20191;-75
2023/06/14 03:15:50;;;;;;;2.65;1.77;;;13.00;1.00;;;;;;4985394;28;20262;-74
2023/06/14 03:18:19;;;;;;;2.15;1.60;;;12.90;1.00;;;;;;4984530;28;21182;-74
2023/06/14 03:20:45;;;;;;;2.33;1.40;;;12.90;1.00;;;;;;4985888;28;20192;-74
2023/06/14 03:23:11;;;;;;;2.75;1.83;;;12.90;1.00;;;;;;4985515;28;20204;-75
2023/06/14 03:25:38;;;;;;;3.03;1.60;;;12.90;1.00;;;;;;4985407;28;20636;-75
2023/06/14 03:28:04;;;;;;;2.72;1.67;;;13.10;1.00;;;;;;4984572;28;20204;-74
2023/06/14 03:30:30;;;;;;;1.60;1.50;;;13.20;1.00;;;;;;4985566;28;20548;-75
2023/06/14 03:32:56;;;;;;;1.90;1.70;;;13.20;1.00;;;;;;4984973;28;20192;-75
2023/06/14 03:35:23;;;;;;;1.80;1.70;;;13.30;1.00;;;;;;4985342;28;20595;-73
2023/06/14 03:37:49;;;;;;;1.98;1.83;;;13.30;1.00;;;;;;4984226;28;20287;-74
2023/06/14 03:40:16;;;;;;;4.30;1.80;;;13.20;1.00;;;;;;4985636;28;20173;-73
2023/06/14 03:42:42;;;;;;;1.90;1.73;;;13.40;1.00;;;;;;4984930;28;20636;-75
2023/06/14 03:45:08;;;;;;;2.15;1.80;;;13.20;1.00;;;;;;4985410;28;20732;-74
2023/06/14 03:47:34;;;;;;;2.20;2.00;;;13.10;1.00;;;;;;4984664;28;20204;-73
2023/06/14 03:50:01;;;;;;;2.03;1.75;;;13.20;1.00;;;;;;4985632;28;20183;-73
2023/06/14 03:52:26;;;;;;;1.95;1.75;;;13.10;1.00;;;;;;4983398;28;20667;-75
2023/06/14 03:54:52;;;;;;;2.60;1.95;;;13.20;1.00;;;;;;4985166;28;20192;-73
2023/06/14 03:57:19;;;;;;;3.00;1.90;;;13.20;1.00;;;;;;4983793;28;20698;-75
2023/06/14 03:59:45;;;;;;;2.78;1.83;;;13.20;1.00;;;;;;4985250;28;20191;-74
2023/06/14 04:02:11;;;;;;;1.77;1.50;;;13.30;1.00;;;;;;4984317;28;20208;-74
2023/06/14 04:04:37;;;;;;;2.22;1.80;;;13.40;1.00;;;;;;4984821;28;20258;-75
2023/06/14 04:07:03;;;;;;;1.70;1.60;;;13.40;1.00;;;;;;4984330;28;20230;-74
2023/06/14 04:09:32;;;;;;;2.13;1.77;;;13.40;1.00;;;;;;4984935;28;20286;-74
2023/06/14 04:11:58;;;;;;;4.20;2.05;;;13.30;1.00;;;;;;4985041;28;20282;-74
2023/06/14 04:14:23;;;;;;;1.73;1.63;;;13.30;1.00;;;;;;4984575;28;20696;-75
2023/06/14 04:16:49;;;;;;;2.10;1.80;;;13.30;1.00;;;;;;4983927;28;20265;-74
2023/06/14 04:19:15;;;;;;;3.10;1.60;;;13.40;1.00;;;;;;4983919;28;20330;-76
2023/06/14 04:21:42;;;;;;;1.80;1.52;;;13.40;1.00;;;;;;4984260;28;20264;-74
2023/06/14 04:24:13;;;;;;;2.65;1.65;;;13.40;1.00;;;;;;4984819;28;20188;-75
2023/06/14 04:26:40;;;;;;;3.45;2.25;;;13.40;1.00;;;;;;4988199;28;20238;-74
2023/06/14 04:29:06;;;;;;;3.78;1.88;;;13.40;1.00;;;;;;4987425;28;20196;-75
2023/06/14 04:31:37;;;;;;;2.88;2.00;;;13.50;1.00;;;;;;4988050;28;20189;-74
2023/06/14 04:34:05;;;;;;;2.95;2.15;;;13.50;1.00;;;;;;4987823;28;20180;-74
2023/06/14 04:36:36;;;;;;;2.25;2.05;;;13.60;1.00;;;;;;4988201;28;20200;-73
2023/06/14 04:39:06;;;;;;;1.98;1.80;;;13.60;1.00;;;;;;4986131;28;20280;-75
2023/06/14 04:41:31;;;;;;;2.63;2.20;;;13.60;1.00;;;;;;4987570;28;20181;-75
2023/06/14 04:44:01;;;;;;;2.63;1.70;;;13.70;1.00;;;;;;4988142;28;20590;-72
2023/06/14 04:46:31;;;;;;;1.90;1.80;;;14.00;1.00;;;;;;4988066;28;20246;-72
2023/06/14 04:48:57;;;;;;;2.60;1.98;;;14.00;1.00;;;;;;4987080;28;20687;-74
2023/06/14 04:51:29;;;;;;;1.88;1.77;;;14.20;1.00;;;;;;4988004;28;20235;-75
2023/06/14 04:53:58;;;;;;;3.65;2.17;;;14.30;1.00;;;;;;4988197;28;20595;-74
2023/06/14 04:56:25;;;;;;;2.20;1.77;;;14.50;1.00;;;;;;4987602;28;20223;-73
2023/06/14 04:58:51;;;;;;;2.10;1.90;;;15.70;1.00;;;;;;4987302;28;20251;-74
2023/06/14 05:01:17;;;;;;;2.28;1.95;;;17.60;1.00;;;;;;4987644;28;20192;-73
2023/06/14 05:03:44;;;;;;;2.72;1.70;;;19.60;1.00;;;;;;4987558;28;20187;-74
2023/06/14 05:06:11;;;;;;;2.78;2.00;;;20.70;1.00;;;;;;4987659;28;20553;-74
2023/06/14 05:08:37;;;;;;;3.72;2.00;;;22.00;1.00;;;;;;4985390;28;20631;-74
2023/06/14 05:11:02;;;;;;;2.35;2.15;;;22.00;1.00;;;;;;4987772;28;20208;-74
2023/06/14 05:13:28;;;;;;;2.92;2.28;;;23.00;1.00;;;;;;4987323;28;20279;-74
2023/06/14 05:15:54;;;;;;;2.92;1.77;;;23.10;1.00;;;;;;4987457;28;20675;-74
2023/06/14 05:18:20;;;;;;;3.75;2.08;;;23.40;1.00;;;;;;4986628;28;20283;-74
2023/06/14 05:20:46;;;;;;;2.75;2.05;;;23.40;1.00;;;;;;4987280;28;20192;-74
2023/06/14 05:23:14;;;;;;;2.45;2.25;;;23.40;1.00;;;;;;4987066;28;20200;-73
2023/06/14 05:25:43;;;;;;;3.00;2.30;;;23.90;1.00;;;;;;4987059;28;20184;-73
2023/06/14 05:28:08;;;;;;;2.72;2.20;;;24.40;1.00;;;;;;4986293;28;20192;-74
2023/06/14 05:30:34;;;;;;;3.75;2.13;;;24.60;1.00;;;;;;4986720;28;20239;-74
2023/06/14 05:33:00;;;;;;;1.90;1.80;;;24.50;1.00;;;;;;4985466;28;20184;-74
2023/06/14 05:35:26;;;;;;;2.50;2.20;;;25.10;1.00;;;;;;4986775;28;20191;-74
2023/06/14 05:37:53;;;;;;;2.40;2.20;;;24.80;1.00;;;;;;4986012;28;20289;-74
2023/06/14 05:40:19;;;;;;;2.25;2.05;;;25.00;1.00;;;;;;4986808;28;20204;-73
2023/06/14 05:42:45;;;;;;;2.67;2.10;;;25.30;1.00;;;;;;4986428;28;20848;-72
2023/06/14 05:45:11;;;;;;;3.65;2.20;;;25.50;1.00;;;;;;4986937;28;20198;-73
2023/06/14 05:47:37;;;;;;;1.73;1.63;;;25.70;1.00;;;;;;4985687;28;20671;-74
2023/06/14 05:50:03;;;;;;;2.05;1.95;;;25.70;1.00;;;;;;4986911;28;20290;-73
2023/06/14 05:52:29;;;;;;;3.38;2.08;;;25.70;1.00;;;;;;4986568;28;20211;-74
2023/06/14 05:54:55;;;;;;;2.42;2.22;;;26.00;1.00;;;;;;4986738;28;20188;-74
2023/06/14 05:57:20;;;;;;;2.42;2.15;;;26.50;1.00;;;;;;4985803;28;20226;-74
2023/06/14 05:59:46;;;;;;;3.75;2.35;;;27.70;1.00;;;;;;4986978;28;20663;-74
2023/06/14 06:02:12;;;;;;;2.03;1.92;;;28.30;1.00;;;;;;4986218;28;20211;-75
2023/06/14 06:04:37;;;;;;;2.40;2.00;;;27.00;1.00;;;;;;4986496;28;20189;-74
2023/06/14 06:07:03;;;;;;;3.00;2.20;;;26.90;1.00;;;;;;4984689;28;20207;-74
2023/06/14 06:09:29;;;;;;;2.40;2.08;;;27.20;1.00;;;;;;4984817;28;20180;-74
2023/06/14 06:11:55;;;;;;;2.38;2.17;;;27.60;1.00;;;;;;4986685;28;20262;-74
2023/06/14 06:14:20;;;;;;;2.50;2.20;;;28.40;1.00;;;;;;5010099;23;20697;-86
2023/06/14 06:16:46;;;;;;;3.08;2.20;;;28.10;1.00;;;;;;5006062;28;20218;-86
2023/06/14 06:19:12;;;;;;;2.53;2.10;;;27.20;1.00;;;;;;5005617;28;20262;-86
2023/06/14 06:21:37;;;;;;;2.55;1.77;;;27.90;1.00;;;;;;5006391;28;20262;-87
2023/06/14 06:24:05;;;;;;;3.50;2.00;;;29.00;1.00;;;;;;5006862;28;20187;-87
2023/06/14 06:26:31;;;;;;;1.85;1.75;;;29.30;1.00;;;;;;5005895;28;20566;-85
2023/06/14 06:28:57;;;;;;;2.53;2.20;;;29.10;1.00;;;;;;5010709;28;20725;-86
2023/06/14 06:31:23;;;;;;;3.03;1.92;;;28.40;1.00;;;;;;5008925;28;20693;-88
2023/06/14 06:33:54;;;;;;;2.10;1.90;;;28.80;1.00;;;;;;5007455;28;20214;-87
2023/06/14 06:36:21;;;;;;;5.78;2.08;;;28.90;1.00;;;;;;5008180;28;20591;-87
2023/06/14 06:38:48;;;;;;;3.65;2.20;;;29.00;1.00;;;;;;5010267;28;20658;-87
2023/06/14 06:41:14;;;;;;;2.30;1.70;;;28.90;1.00;;;;;;5009200;28;20214;-86
2023/06/14 06:43:39;;;;;;;2.35;1.90;;;28.70;1.00;;;;;;5005440;28;20187;-86
2023/06/14 06:46:05;;;;;;;1.90;1.70;;;28.70;1.00;;;;;;5005775;28;20190;-86
2023/06/14 06:48:44;;;;;;;1.80;1.70;;;29.70;1.00;;;;;;5005321;28;20660;-85
2023/06/14 06:51:09;;;;;;;1.92;1.83;;;29.90;1.00;;;;;;5012532;28;20210;-85
2023/06/14 06:53:36;;;;;;;3.17;1.83;;;28.80;1.00;;;;;;5005755;28;20187;-87
2023/06/14 06:56:02;;;;;;;1.83;1.73;;;28.90;1.00;;;;;;5005628;28;20211;-87
2023/06/14 06:58:28;;;;;;;2.08;1.73;;;28.20;1.00;;;;;;5006005;28;20180;-87
2023/06/14 07:00:53;;;;;;;1.90;1.80;;;29.40;1.00;;;;;;5006273;28;20183;-86
2023/06/14 07:03:19;;;;;;;1.77;1.67;;;29.90;1.00;;;;;;5006333;28;20175;-88
2023/06/14 07:05:45;;;;;;;1.90;1.80;;;29.90;1.00;;;;;;5005154;28;20448;-87
2023/06/14 07:08:10;;;;;;;3.35;1.90;;;28.50;1.00;;;;;;5005869;28;20853;-87
2023/06/14 07:10:37;;;;;;;3.63;1.75;;;27.90;1.00;;;;;;5004755;28;20199;-87
2023/06/14 07:13:03;;;;;;;1.92;1.80;;;29.30;1.00;;;;;;5005181;28;20193;-87
2023/06/14 07:15:29;;;;;;;1.88;1.77;;;29.50;1.00;;;;;;5006151;28;20207;-88
2023/06/14 07:17:59;;;;;;;1.90;1.60;;;29.10;1.00;;;;;;5004658;28;20211;-86
2023/06/14 07:20:25;;;;;;;2.03;1.80;;;29.00;1.00;;;;;;5005311;28;20731;-88
2023/06/14 07:22:51;;;;;;;2.20;2.00;;;29.60;1.00;;;;;;5001927;28;20219;-88
2023/06/14 07:25:19;;;;;;;1.90;1.80;;;30.50;1.00;;;;;;5002282;28;20459;-87
2023/06/14 07:27:45;;;;;;;1.70;1.60;;;30.20;1.00;;;;;;5003467;28;20175;-86
2023/06/14 07:30:11;;;;;;;4.07;1.80;;;28.70;1.00;;;;;;5003488;28;20210;-87
2023/06/14 07:32:37;;;;;;;2.85;1.80;;;25.90;1.00;;;;;;5001929;28;20273;-87
2023/06/14 07:35:03;;;;;;;2.58;1.67;;;23.30;1.00;;;;;;5002317;28;20195;-87
2023/06/14 07:37:29;;;;;;;1.90;1.80;;;21.90;1.00;;;;;;5001528;28;20204;-88
2023/06/14 07:39:55;;;;;;;2.83;1.40;;;21.10;1.00;;;;;;5001833;28;20180;-86
2023/06/14 07:42:20;;;;;;;2.42;2.15;;;20.40;1.00;;;;;;5001382;28;20656;-88
2023/06/14 07:44:46;;;;;;;2.00;1.90;;;20.40;1.00;;;;;;5001537;28;20191;-87
2023/06/14 07:47:12;;;;;;;1.90;1.60;;;20.80;1.00;;;;;;5002979;28;20179;-87
2023/06/14 07:49:37;;;;;;;2.67;1.55;;;20.60;1.00;;;;;;5004419;28;20654;-86
2023/06/14 07:52:04;;;;;;;3.65;1.73;;;20.70;1.00;;;;;;5004400;28;20299;-86
2023/06/14 07:54:31;;;;;;;2.67;1.88;;;20.60;1.00;;;;;;5000519;28;20191;-85
2023/06/14 07:56:58;;;;;;;1.77;1.67;;;20.30;1.00;;;;;;5000401;28;20314;-86
2023/06/14 07:59:24;;;;;;;2.22;1.52;;;20.10;1.00;;;;;;5001276;28;20741;-87
2023/06/14 08:01:49;;;;;;;4.03;2.00;;;19.90;1.00;;;;;;5006200;28;20211;-86
2023/06/14 08:04:15;;;;;;;2.10;1.90;;;19.90;1.00;;;;;;5005398;28;20289;-87
2023/06/14 08:06:43;;;;;;;2.10;1.70;;;20.00;1.00;;;;;;5007309;28;20183;-87
2023/06/14 08:09:10;;;;;;;2.22;1.70;;;20.20;1.00;;;;;;5004661;28;20668;-87
2023/06/14 08:11:35;;;;;;;2.38;1.88;;;20.00;1.00;;;;;;5006098;28;20208;-87
2023/06/14 08:14:01;;;;;;;3.22;2.08;;;19.90;1.00;;;;;;5007504;28;21079;-87
2023/06/14 08:16:27;;;;;;;1.98;1.80;;;19.70;1.00;;;;;;5008839;28;20689;-86
2023/06/14 08:18:55;;;;;;;2.47;1.77;;;19.80;1.00;;;;;;5011703;28;20184;-86
2023/06/14 08:21:20;;;;;;;2.05;1.48;;;19.80;1.00;;;;;;5010537;28;20227;-87
2023/06/14 08:23:47;;;;;;;1.67;1.58;;;19.90;1.00;;;;;;5007343;28;20230;-87
2023/06/14 08:26:12;;;;;;;1.52;1.42;;;19.60;1.00;;;;;;5008552;28;20560;-86
2023/06/14 08:28:38;;;;;;;1.85;1.63;;;19.50;1.00;;;;;;5010426;28;20246;-88
2023/06/14 08:31:04;;;;;;;1.58;1.48;;;19.40;1.00;;;;;;5011357;28;20698;-88
2023/06/14 08:33:29;;;;;;;2.15;1.30;;;19.50;1.00;;;;;;5013825;28;20187;-88
2023/06/14 08:35:55;;;;;;;1.65;1.55;;;19.70;1.00;;;;;;5010758;28;20203;-88
2023/06/14 08:38:20;;;;;;;1.58;1.48;;;19.90;1.00;;;;;;5009820;28;20190;-88
2023/06/14 08:40:51;;;;;;;1.40;1.30;;;19.70;1.00;;;;;;5009533;28;20184;-88
2023/06/14 08:43:16;;;;;;;1.88;1.33;;;19.90;1.00;;;;;;5007810;28;20176;-87
2023/06/14 08:45:42;;;;;;;3.33;1.15;;;20.00;1.00;;;;;;5009451;28;20249;-87
2023/06/14 08:48:08;;;;;;;1.63;1.40;;;20.10;1.00;;;;;;5011005;28;20222;-88
2023/06/14 08:50:37;;;;;;;2.30;1.30;;;20.50;1.00;;;;;;5009783;28;20212;-87
2023/06/14 08:53:03;;;;;;;2.22;1.10;;;20.30;1.00;;;;;;5007992;28;20580;-88
2023/06/14 08:55:30;;;;;;;2.03;1.23;;;20.40;1.00;;;;;;5006988;28;20183;-84
2023/06/14 08:58:00;;;;;;;1.10;1.00;;;20.70;1.00;;;;;;5006884;28;20184;-83
2023/06/14 09:00:27;;;;;;;2.15;1.52;;;20.50;1.00;;;;;;5006863;28;20184;-84
2023/06/14 09:02:59;;;;;;;1.25;1.15;;;20.50;1.00;;;;;;5006176;28;20246;-85
2023/06/14 09:05:27;;;;;;;2.70;1.38;;;20.40;1.00;;;;;;5006114;28;20183;-85
2023/06/14 09:08:10;;;;;;;;;;;;;;;;;;;;;
2023/06/14 09:30:50;;;;;;;1.42;1.33;;;21.00;1.00;;;;;;5030948;23;20347;-74
2023/06/14 09:33:20;;;;;;;2.08;1.70;;;21.20;1.00;;;;;;5037517;28;20195;-75
2023/06/14 09:35:50;;;;;;;3.20;1.80;;;21.20;1.00;;;;;;5021547;28;20303;-74
2023/06/14 09:38:15;;;;;;;2.10;1.75;;;21.30;1.00;;;;;;5004783;28;20267;-75
2023/06/14 09:40:41;;;;;;;2.30;2.10;;;21.50;1.00;;;;;;5008904;28;20631;-75
2023/06/14 09:43:10;;;;;;;2.97;1.75;;;21.50;1.00;;;;;;5013372;28;20305;-75
2023/06/14 09:45:39;;;;;;;3.10;2.00;;;21.60;1.00;;;;;;5014650;28;20591;-74
2023/06/14 09:48:07;;;;;;;2.67;2.10;;;21.40;1.00;;;;;;5014194;28;20175;-74
2023/06/14 09:50:33;;;;;;;2.08;1.98;;;21.30;1.00;;;;;;5018327;28;20521;-75
2023/06/14 09:53:05;;;;;;;2.70;2.35;;;21.20;1.00;;;;;;5004637;28;20265;-74
2023/06/14 09:55:34;;;;;;;2.35;2.05;;;21.30;1.00;;;;;;5007099;28;20214;-76
2023/06/14 09:58:03;;;;;;;2.95;2.20;;;21.10;1.00;;;;;;5010027;28;20683;-76
2023/06/14 10:00:31;;;;;;;3.03;1.95;;;21.00;1.00;;;;;;5010838;28;20292;-75
2023/06/14 10:03:03;;;;;;;4.07;2.30;;;21.20;1.00;;;;;;5002740;28;20183;-75
2023/06/14 10:05:29;;;;;;;2.97;2.20;;;21.40;1.00;;;;;;5002269;28;20211;-73
2023/06/14 10:08:07;;;;;;;4.47;2.53;;;21.70;1.00;;;;;;5004015;28;20202;-74
2023/06/14 10:10:33;;;;;;;4.45;1.92;;;21.80;1.00;;;;;;5011530;28;20685;-74
2023/06/14 10:12:59;;;;;;;3.55;2.15;;;21.70;1.00;;;;;;5004971;28;20191;-75
2023/06/14 10:16:07;;;;;;;3.78;2.33;;;21.90;1.00;;;;;;5003710;28;20454;-74
2023/06/14 10:19:07;;;;;;;6.47;2.35;;;22.10;1.00;;;;;;5006675;28;20342;-75
2023/06/14 10:21:43;;;;;;;6.63;2.67;;;22.30;1.00;;;;;;5010308;28;20192;-76
2023/06/14 10:24:13;;;;;;;3.80;2.70;;;22.40;1.00;;;;;;5012607;28;20171;-75
2023/06/14 10:26:51;;;;;;;6.28;2.70;;;22.70;1.00;;;;;;5010536;28;20198;-76
2023/06/14 10:29:17;;;;;;;6.95;2.67;;;23.00;1.00;;;;;;5004939;28;20536;-75
2023/06/14 10:31:47;;;;;;;7.07;2.63;;;23.30;1.00;;;;;;5009466;28;20210;-76
2023/06/14 10:34:28;;;;;;;4.65;2.60;;;23.10;1.00;;;;;;5014186;28;20183;-73
2023/06/14 10:37:11;;;;;;;5.32;2.40;;;23.30;1.00;;;;;;5009852;28;20222;-77
2023/06/14 10:39:41;;;;;;;3.67;2.80;;;23.60;1.00;;;;;;5017795;28;20574;-74
2023/06/14 10:42:07;;;;;;;5.55;2.88;;;23.70;1.00;;;;;;5017252;28;20179;-76
2023/06/14 10:44:59;;;;;;;3.60;2.40;;;23.70;1.00;;;;;;5017605;28;20190;-75
2023/06/14 10:47:32;;;;;;;3.05;2.20;;;23.70;1.00;;;;;;5016939;28;20295;-77
2023/06/14 10:50:10;;;;;;;2.95;2.15;;;23.60;1.00;;;;;;5017653;28;20222;-76
2023/06/14 10:52:43;;;;;;;3.28;2.50;;;23.20;1.00;;;;;;5017531;28;21383;-76
2023/06/14 10:55:17;;;;;;;3.00;2.50;;;23.10;1.00;;;;;;5016936;28;20183;-74
2023/06/14 10:57:45;;;;;;;2.60;2.40;;;22.90;1.00;;;;;;5013520;28;20214;-73
2023/06/14 11:00:13;;;;;;;5.40;2.50;;;23.00;1.00;;;;;;5011975;28;20230;-75
2023/06/14 11:03:16;;;;;;;2.70;2.50;;;23.10;1.00;;;;;;5012643;28;21072;-74
2023/06/14 11:05:47;;;;;;;4.13;2.20;;;23.00;1.00;;;;;;5007322;28;20207;-74
2023/06/14 11:08:34;;;;;;;3.38;2.35;;;22.90;1.00;;;;;;5012265;28;20698;-75
2023/06/14 11:11:00;;;;;;;2.95;2.47;;;22.40;1.00;;;;;;5014561;28;20183;-74
2023/06/14 11:13:26;;;;;;;5.10;2.45;;;22.20;1.00;;;;;;5014157;28;20186;-74
2023/06/14 11:15:57;;;;;;;5.28;2.60;;;22.10;1.00;;;;;;5004423;28;20242;-74
2023/06/14 11:18:27;;;;;;;3.38;2.40;;;22.10;1.00;;;;;;5015402;28;20545;-75
2023/06/14 11:20:53;;;;;;;5.25;2.63;;;22.10;1.00;;;;;;5012741;28;20175;-75
2023/06/14 11:23:19;;;;;;;4.30;2.58;;;22.20;1.00;;;;;;5007198;28;20523;-74
2023/06/14 11:25:52;;;;;;;3.08;2.78;;;22.20;1.00;;;;;;5011974;28;20904;-76
2023/06/14 11:28:19;;;;;;;2.55;2.30;;;22.00;1.00;;;;;;5014676;28;20677;-74
2023/06/14 11:30:46;;;;;;;2.72;2.50;;;22.00;1.00;;;;;;5013748;28;20186;-73
2023/06/14 11:33:17;;;;;;;3.90;2.42;;;22.10;1.00;;;;;;5016741;28;20179;-74
2023/06/14 11:35:42;;;;;;;6.78;2.83;;;22.30;1.00;;;;;;5022675;28;20229;-74
2023/06/14 11:38:10;;;;;;;2.78;2.58;;;22.50;1.00;;;;;;5017112;28;20203;-76
2023/06/14 11:40:38;;;;;;;3.22;2.40;;;22.70;1.00;;;;;;5012564;28;20246;-76
2023/06/14 11:43:04;;;;;;;4.97;2.70;;;22.60;1.00;;;;;;5018499;28;20186;-76
2023/06/14 11:45:30;;;;;;;6.65;2.60;;;22.50;1.00;;;;;;5013521;28;20202;-73
2023/06/14 11:47:57;;;;;;;3.25;2.75;;;22.50;1.00;;;;;;5014730;28;20178;-74
2023/06/14 11:50:23;;;;;;;4.10;2.63;;;22.60;1.00;;;;;;5014924;28;20568;-75
2023/06/14 11:53:06;;;;;;;3.97;2.63;;;22.90;1.00;;;;;;5015735;28;20171;-74
2023/06/14 11:55:44;;;;;;;5.30;2.70;;;23.10;1.00;;;;;;5018292;28;20210;-75
2023/06/14 11:58:10;;;;;;;2.83;2.58;;;23.20;1.00;;;;;;5014535;28;20186;-75
2023/06/14 12:00:36;;;;;;;2.80;2.60;;;23.40;1.00;;;;;;5021030;28;20183;-74
2023/06/14 12:03:03;;;;;;;4.60;2.53;;;23.20;1.00;;;;;;5013392;28;20180;-76
2023/06/14 12:05:28;;;;;;;4.28;2.63;;;23.00;1.00;;;;;;5015548;28;20203;-73
2023/06/14 12:08:03;;;;;;;5.07;2.60;;;22.90;1.00;;;;;;5010919;28;20189;-73
2023/06/14 12:10:29;;;;;;;5.57;2.55;;;22.90;1.00;;;;;;5014268;28;20183;-76
2023/06/14 12:13:00;;;;;;;4.78;2.78;;;23.10;1.00;;;;;;5012126;28;20553;-73
2023/06/14 12:15:29;;;;;;;5.88;2.63;;;23.30;1.00;;;;;;5014390;28;20207;-73
2023/06/14 12:17:57;;;;;;;5.18;2.70;;;23.40;1.00;;;;;;5015489;28;20191;-75
2023/06/14 12:20:28;;;;;;;2.95;2.67;;;23.30;1.00;;;;;;5014275;28;20233;-75
2023/06/14 12:23:00;;;;;;;4.43;2.92;;;23.20;1.00;;;;;;5008602;28;20191;-74
2023/06/14 12:25:28;;;;;;;2.90;2.50;;;23.20;1.00;;;;;;5010667;28;20209;-75
2023/06/14 12:27:55;;;;;;;4.15;2.35;;;23.10;1.00;;;;;;5006941;28;20183;-73
2023/06/14 12:30:20;;;;;;;5.00;2.83;;;23.20;1.00;;;;;;5009673;28;20224;-73
2023/06/14 12:32:46;;;;;;;3.90;2.90;;;23.20;1.00;;;;;;5012439;28;20308;-74
2023/06/14 12:35:12;;;;;;;4.03;2.58;;;23.60;1.00;;;;;;5017329;28;20198;-74
2023/06/14 12:37:37;;;;;;;5.28;2.58;;;23.60;1.00;;;;;;5010364;28;20718;-74
2023/06/14 12:40:05;;;;;;;2.80;2.22;;;23.70;1.00;;;;;;5008038;28;20191;-73
2023/06/14 12:42:31;;;;;;;3.05;2.55;;;23.70;1.00;;;;;;5011657;28;20753;-74
2023/06/14 12:44:57;;;;;;;4.95;2.95;;;23.70;1.00;;;;;;5018877;28;20273;-74
2023/06/14 12:47:22;;;;;;;3.63;2.67;;;23.30;1.00;;;;;;5015652;28;20678;-74
2023/06/14 12:49:48;;;;;;;4.07;2.63;;;23.10;1.00;;;;;;5012106;28;20289;-74
2023/06/14 12:52:13;;;;;;;4.07;2.67;;;23.10;1.00;;;;;;5016755;28;20233;-74
2023/06/14 12:54:39;;;;;;;6.50;2.85;;;23.40;1.00;;;;;;5013866;28;20195;-75
2023/06/14 12:57:06;;;;;;;5.72;2.65;;;23.50;1.00;;;;;;5018119;28;20207;-74
2023/06/14 12:59:33;;;;;;;6.25;2.70;;;23.80;1.00;;;;;;5021450;28;20175;-76
2023/06/14 13:02:10;;;;;;;5.05;2.95;;;24.00;1.00;;;;;;5013552;28;21088;-74
2023/06/14 13:04:36;;;;;;;3.85;2.70;;;24.20;1.00;;;;;;5011186;28;20521;-75
2023/06/14 13:07:01;;;;;;;3.42;2.60;;;24.10;1.00;;;;;;5010768;28;20223;-73
2023/06/14 13:09:27;;;;;;;5.28;2.60;;;23.70;1.00;;;;;;5012759;28;20195;-75
2023/06/14 13:11:53;;;;;;;3.33;2.80;;;23.50;1.00;;;;;;5013382;28;20198;-75
2023/06/14 13:14:18;;;;;;;4.82;2.83;;;23.30;1.00;;;;;;5006621;28;20233;-74
2023/06/14 13:16:44;;;;;;;4.60;2.70;;;23.20;1.00;;;;;;5014778;28;20219;-75
2023/06/14 13:19:10;;;;;;;10.95;3.72;;;23.20;1.00;;;;;;5013272;28;20187;-75
2023/06/14 13:21:35;;;;;;;5.95;3.10;;;23.30;1.00;;;;;;5018204;28;20179;-74